Time;durP1;ratioP1;P1;durP2;ratioP2;P2;SDS_P1;SDS_P2;PMS_P1;PMS_P2;Temp;Humidity;BMP_temperature;BMP_pressure;BME280_temperature;BME280_humidity;BME280_pressure;Samples;Min_cycle;Max_cycle;Signal;HPM_P1;HPM_P2
2024/01/07 00:00:31;;;;;;;0.30;0.30;;;;;;;;;;5114130;28;20197;-78
2024/01/07 00:02:58;;;;;;;0.30;0.30;;;;;;;;;;5122830;28;20276;-78
2024/01/07 00:05:24;;;;;;;0.20;0.20;;;;;;;;;;5113789;28;20229;-78
2024/01/07 00:07:51;;;;;;;0.23;0.23;;;;;;;;;;5123986;28;20501;-78
2024/01/07 00:10:18;;;;;;;0.30;0.30;;;;;;;;;;5113948;28;20333;-78
2024/01/07 00:12:44;;;;;;;0.73;0.73;;;;;;;;;;5123723;28;20243;-78
2024/01/07 00:15:11;;;;;;;0.57;0.57;;;;;;;;;;5114020;28;20232;-78
2024/01/07 00:17:39;;;;;;;0.20;0.20;;;;;;;;;;5123383;28;20273;-78
2024/01/07 00:20:06;;;;;;;0.20;0.20;;;;;;;;;;5124447;28;20450;-79
2024/01/07 00:22:32;;;;;;;0.20;0.20;;;;;;;;;;5112790;28;20283;-77
2024/01/07 00:24:58;;;;;;;0.30;0.30;;;;;;;;;;5124473;28;20201;-79
2024/01/07 00:27:25;;;;;;;0.20;0.20;;;;;;;;;;5112680;28;20254;-78
2024/01/07 00:29:51;;;;;;;0.20;0.20;;;;;;;;;;5124496;28;20236;-78
2024/01/07 00:32:18;;;;;;;0.20;0.20;;;;;;;;;;5112808;28;20313;-78
2024/01/07 00:34:46;;;;;;;0.27;0.27;;;;;;;;;;5124434;28;20202;-77
2024/01/07 00:37:12;;;;;;;0.20;0.20;;;;;;;;;;5112480;28;20253;-78
2024/01/07 00:39:39;;;;;;;0.20;0.20;;;;;;;;;;5124077;28;20425;-78
2024/01/07 00:42:05;;;;;;;0.50;0.50;;;;;;;;;;5112593;28;20248;-78
2024/01/07 00:44:32;;;;;;;0.30;0.30;;;;;;;;;;5124462;28;20509;-78
2024/01/07 00:46:58;;;;;;;0.30;0.30;;;;;;;;;;5112792;28;20481;-78
2024/01/07 00:49:24;;;;;;;0.20;0.20;;;;;;;;;;5124022;28;20220;-78
2024/01/07 00:51:52;;;;;;;0.30;0.30;;;;;;;;;;5112534;28;20241;-78
2024/01/07 00:54:19;;;;;;;0.30;0.30;;;;;;;;;;5124063;28;20202;-78
2024/01/07 00:56:46;;;;;;;0.20;0.20;;;;;;;;;;5112733;28;20575;-78
2024/01/07 00:59:12;;;;;;;0.20;0.20;;;;;;;;;;5124232;28;20232;-78
2024/01/07 01:01:38;;;;;;;0.30;0.30;;;;;;;;;;5112063;28;20245;-78
2024/01/07 01:04:05;;;;;;;1.90;1.80;;;;;;;;;;5123617;28;20226;-78
2024/01/07 01:06:31;;;;;;;0.30;0.30;;;;;;;;;;5112624;28;20548;-78
2024/01/07 01:08:59;;;;;;;0.20;0.20;;;;;;;;;;5123665;28;20232;-79
2024/01/07 01:11:25;;;;;;;0.30;0.30;;;;;;;;;;5112686;28;20429;-78
2024/01/07 01:13:52;;;;;;;0.37;0.37;;;;;;;;;;5125320;28;20229;-78
2024/01/07 01:16:18;;;;;;;0.20;0.20;;;;;;;;;;5116655;28;20241;-78
2024/01/07 01:18:44;;;;;;;0.20;0.20;;;;;;;;;;5127364;28;20237;-78
2024/01/07 01:21:12;;;;;;;0.30;0.30;;;;;;;;;;5116377;28;20279;-79
2024/01/07 01:23:38;;;;;;;0.20;0.20;;;;;;;;;;5127349;28;20209;-78
2024/01/07 01:26:06;;;;;;;0.20;0.20;;;;;;;;;;5116580;28;20248;-78
2024/01/07 01:28:32;;;;;;;0.30;0.30;;;;;;;;;;5127415;28;20456;-79
2024/01/07 01:30:58;;;;;;;0.20;0.20;;;;;;;;;;5116642;28;20640;-77
2024/01/07 01:33:25;;;;;;;3.80;3.70;;;;;;;;;;5127207;28;20452;-78
2024/01/07 01:35:51;;;;;;;0.20;0.20;;;;;;;;;;5116828;28;20300;-78
2024/01/07 01:38:18;;;;;;;0.20;0.20;;;;;;;;;;5126933;28;20205;-77
2024/01/07 01:40:44;;;;;;;0.50;0.50;;;;;;;;;;5116852;28;20308;-78
2024/01/07 01:43:12;;;;;;;0.80;0.80;;;;;;;;;;5126743;28;20204;-78
2024/01/07 01:45:39;;;;;;;0.27;0.27;;;;;;;;;;5116453;28;20490;-78
2024/01/07 01:48:05;;;;;;;0.20;0.20;;;;;;;;;;5126617;28;20404;-78
2024/01/07 01:50:32;;;;;;;0.80;0.80;;;;;;;;;;5116582;28;20238;-78
2024/01/07 01:52:58;;;;;;;0.30;0.30;;;;;;;;;;5126201;28;20201;-78
2024/01/07 01:55:25;;;;;;;0.20;0.20;;;;;;;;;;5116415;28;20244;-79
2024/01/07 01:57:52;;;;;;;0.20;0.20;;;;;;;;;;5126260;28;20423;-78
2024/01/07 02:00:20;;;;;;;0.30;0.30;;;;;;;;;;5116359;28;20233;-78
2024/01/07 02:02:47;;;;;;;0.30;0.30;;;;;;;;;;5126232;28;20517;-78
2024/01/07 02:05:13;;;;;;;0.20;0.20;;;;;;;;;;5116094;28;20232;-77
2024/01/07 02:07:40;;;;;;;0.30;0.30;;;;;;;;;;5126005;28;20400;-79
2024/01/07 02:10:06;;;;;;;1.07;1.07;;;;;;;;;;5124889;28;20208;-78
2024/01/07 02:12:32;;;;;;;0.20;0.20;;;;;;;;;;5115474;28;20252;-79
2024/01/07 02:14:58;;;;;;;0.30;0.30;;;;;;;;;;5126991;28;20281;-79
2024/01/07 02:17:27;;;;;;;0.87;0.87;;;;;;;;;;5115052;28;20237;-79
2024/01/07 02:19:53;;;;;;;0.30;0.30;;;;;;;;;;5126901;28;20269;-79
2024/01/07 02:22:19;;;;;;;0.30;0.30;;;;;;;;;;5115262;28;20300;-79
2024/01/07 02:24:47;;;;;;;0.30;0.30;;;;;;;;;;5125649;28;20209;-79
2024/01/07 02:27:14;;;;;;;0.20;0.20;;;;;;;;;;5114885;28;20428;-78
2024/01/07 02:29:40;;;;;;;0.37;0.37;;;;;;;;;;5126687;28;20277;-79
2024/01/07 02:32:07;;;;;;;0.23;0.23;;;;;;;;;;5114984;28;20578;-79
2024/01/07 02:34:33;;;;;;;0.20;0.20;;;;;;;;;;5126361;28;20213;-78
2024/01/07 02:36:59;;;;;;;0.30;0.30;;;;;;;;;;5114952;28;20304;-79
2024/01/07 02:39:26;;;;;;;0.30;0.30;;;;;;;;;;5126462;28;20245;-79
2024/01/07 02:41:54;;;;;;;0.30;0.30;;;;;;;;;;5114768;28;20260;-79
2024/01/07 02:44:20;;;;;;;0.30;0.30;;;;;;;;;;5126235;28;20401;-79
2024/01/07 02:46:47;;;;;;;0.20;0.20;;;;;;;;;;5114862;28;20522;-78
2024/01/07 02:49:13;;;;;;;0.30;0.30;;;;;;;;;;5126247;28;20205;-79
2024/01/07 02:51:39;;;;;;;0.20;0.20;;;;;;;;;;5114478;28;20306;-79
2024/01/07 02:54:06;;;;;;;0.30;0.30;;;;;;;;;;5125667;28;20205;-78
2024/01/07 02:56:32;;;;;;;0.23;0.23;;;;;;;;;;5114417;28;20311;-79
2024/01/07 02:59:00;;;;;;;0.37;0.37;;;;;;;;;;5125503;28;20577;-79
2024/01/07 03:01:26;;;;;;;0.20;0.20;;;;;;;;;;5114567;28;20305;-79
2024/01/07 03:03:53;;;;;;;0.30;0.30;;;;;;;;;;5125493;28;20250;-79
2024/01/07 03:06:19;;;;;;;0.30;0.30;;;;;;;;;;5114403;28;20244;-79
2024/01/07 03:08:45;;;;;;;0.30;0.30;;;;;;;;;;5125673;28;20437;-79
2024/01/07 03:11:12;;;;;;;0.30;0.30;;;;;;;;;;5114344;28;20300;-79
2024/01/07 03:13:38;;;;;;;7.90;7.13;;;;;;;;;;5125471;28;20246;-79
2024/01/07 03:16:07;;;;;;;0.30;0.30;;;;;;;;;;5114656;28;20256;-79
2024/01/07 03:18:33;;;;;;;0.30;0.30;;;;;;;;;;5125277;28;20288;-79
2024/01/07 03:21:00;;;;;;;1.03;1.03;;;;;;;;;;5114520;28;20242;-79
2024/01/07 03:23:26;;;;;;;0.30;0.30;;;;;;;;;;5125149;28;20280;-79
2024/01/07 03:25:52;;;;;;;0.30;0.30;;;;;;;;;;5114667;28;20257;-79
2024/01/07 03:28:19;;;;;;;0.30;0.30;;;;;;;;;;5125043;28;20397;-79
2024/01/07 03:30:45;;;;;;;0.30;0.30;;;;;;;;;;5114090;28;20457;-79
2024/01/07 03:33:13;;;;;;;0.30;0.30;;;;;;;;;;5124881;28;20200;-79
2024/01/07 03:35:39;;;;;;;0.30;0.30;;;;;;;;;;5114784;28;20251;-79
2024/01/07 03:38:06;;;;;;;0.23;0.23;;;;;;;;;;5124596;28;20236;-79
2024/01/07 03:40:32;;;;;;;0.23;0.23;;;;;;;;;;5114582;28;20497;-79
2024/01/07 03:42:59;;;;;;;0.30;0.30;;;;;;;;;;5124665;28;20204;-79
2024/01/07 03:45:25;;;;;;;0.30;0.30;;;;;;;;;;5114544;28;20206;-79
2024/01/07 03:47:52;;;;;;;0.30;0.30;;;;;;;;;;5124540;28;20205;-78
2024/01/07 03:50:20;;;;;;;0.30;0.30;;;;;;;;;;5114682;28;20229;-79
2024/01/07 03:52:46;;;;;;;0.30;0.30;;;;;;;;;;5124399;28;20237;-79
2024/01/07 03:55:12;;;;;;;0.30;0.30;;;;;;;;;;5114972;28;20410;-79
2024/01/07 03:57:39;;;;;;;0.30;0.30;;;;;;;;;;5124458;28;20360;-79
2024/01/07 04:00:06;;;;;;;0.30;0.30;;;;;;;;;;5125059;28;20235;-78
2024/01/07 04:02:32;;;;;;;0.30;0.30;;;;;;;;;;5113463;28;20244;-79
2024/01/07 04:04:58;;;;;;;0.30;0.30;;;;;;;;;;5124739;28;20264;-79
2024/01/07 04:07:26;;;;;;;12.33;10.30;;;;;;;;;;5113251;28;20315;-79
2024/01/07 04:09:52;;;;;;;0.30;0.30;;;;;;;;;;5124905;28;20269;-79
2024/01/07 04:12:19;;;;;;;0.30;0.30;;;;;;;;;;5113236;28;20233;-79
2024/01/07 04:14:45;;;;;;;0.33;0.33;;;;;;;;;;5125049;28;20211;-78
2024/01/07 04:17:11;;;;;;;0.30;0.30;;;;;;;;;;5113298;28;20238;-79
2024/01/07 04:19:38;;;;;;;12.77;12.00;;;;;;;;;;5124820;28;20400;-79
2024/01/07 04:22:05;;;;;;;0.30;0.30;;;;;;;;;;5112853;28;20242;-79
2024/01/07 04:24:32;;;;;;;0.30;0.30;;;;;;;;;;5124997;28;20377;-79
2024/01/07 04:26:59;;;;;;;0.30;0.30;;;;;;;;;;5113000;28;20307;-79
2024/01/07 04:29:25;;;;;;;0.30;0.30;;;;;;;;;;5124669;28;20235;-79
2024/01/07 04:31:51;;;;;;;0.30;0.30;;;;;;;;;;5112867;28;20328;-79
2024/01/07 04:34:18;;;;;;;0.30;0.30;;;;;;;;;;5124452;28;20276;-79
2024/01/07 04:36:44;;;;;;;0.30;0.30;;;;;;;;;;5112785;28;20264;-79
2024/01/07 04:39:11;;;;;;;0.30;0.30;;;;;;;;;;5124300;28;20395;-79
2024/01/07 04:41:38;;;;;;;0.20;0.20;;;;;;;;;;5112726;28;20238;-79
2024/01/07 04:44:05;;;;;;;0.30;0.30;;;;;;;;;;5124161;28;20273;-79
2024/01/07 04:46:34;;;;;;;0.30;0.30;;;;;;;;;;5113102;28;20264;-79
2024/01/07 04:49:00;;;;;;;0.30;0.30;;;;;;;;;;5126189;28;20386;-79
2024/01/07 04:51:27;;;;;;;0.30;0.30;;;;;;;;;;5117493;28;20474;-79
2024/01/07 04:53:53;;;;;;;0.30;0.30;;;;;;;;;;5128651;28;20238;-79
2024/01/07 04:56:19;;;;;;;0.30;0.30;;;;;;;;;;5117263;28;20499;-78
2024/01/07 04:58:47;;;;;;;0.30;0.30;;;;;;;;;;5128086;28;20205;-79
2024/01/07 05:01:14;;;;;;;0.30;0.30;;;;;;;;;;5117360;28;20252;-78
2024/01/07 05:03:40;;;;;;;0.30;0.30;;;;;;;;;;5128037;28;20279;-79
2024/01/07 05:06:09;;;;;;;0.30;0.30;;;;;;;;;;5116875;28;20297;-78
2024/01/07 05:08:35;;;;;;;0.30;0.30;;;;;;;;;;5127599;28;20206;-79
2024/01/07 05:11:01;;;;;;;0.30;0.30;;;;;;;;;;5117098;28;20441;-79
2024/01/07 05:13:28;;;;;;;0.30;0.30;;;;;;;;;;5127404;28;20528;-79
2024/01/07 05:15:56;;;;;;;0.30;0.30;;;;;;;;;;5117239;28;20249;-79
2024/01/07 05:18:22;;;;;;;0.37;0.37;;;;;;;;;;5127892;28;20418;-79
2024/01/07 05:20:49;;;;;;;0.30;0.30;;;;;;;;;;5117404;28;20447;-79
2024/01/07 05:23:15;;;;;;;0.30;0.30;;;;;;;;;;5127708;28;20226;-79
2024/01/07 05:25:42;;;;;;;0.30;0.30;;;;;;;;;;5117441;28;20481;-78
2024/01/07 05:28:09;;;;;;;0.30;0.30;;;;;;;;;;5127353;28;20207;-79
2024/01/07 05:30:35;;;;;;;0.30;0.30;;;;;;;;;;5116906;28;20268;-79
2024/01/07 05:33:03;;;;;;;0.37;0.37;;;;;;;;;;5127145;28;20226;-79
2024/01/07 05:35:30;;;;;;;0.30;0.30;;;;;;;;;;5117068;28;20247;-79
2024/01/07 05:37:56;;;;;;;0.30;0.30;;;;;;;;;;5126736;28;20215;-79
2024/01/07 05:40:22;;;;;;;0.30;0.30;;;;;;;;;;5116685;28;20207;-79
2024/01/07 05:42:49;;;;;;;0.30;0.30;;;;;;;;;;5126842;28;20198;-78
2024/01/07 05:45:15;;;;;;;0.30;0.30;;;;;;;;;;5116845;28;20210;-78
2024/01/07 05:47:42;;;;;;;0.30;0.30;;;;;;;;;;5126673;28;20444;-80
2024/01/07 05:50:10;;;;;;;0.30;0.30;;;;;;;;;;5122374;28;20394;-78
2024/01/07 05:52:37;;;;;;;0.30;0.30;;;;;;;;;;5126139;28;20459;-79
2024/01/07 05:55:03;;;;;;;0.30;0.30;;;;;;;;;;5127546;28;20564;-79
2024/01/07 05:57:30;;;;;;;0.23;0.23;;;;;;;;;;5115535;28;20239;-79
2024/01/07 05:59:56;;;;;;;0.30;0.30;;;;;;;;;;5127284;28;20213;-78
2024/01/07 06:02:24;;;;;;;0.30;0.30;;;;;;;;;;5115184;28;20237;-79
2024/01/07 06:04:50;;;;;;;0.30;0.30;;;;;;;;;;5127327;28;20481;-79
2024/01/07 06:07:19;;;;;;;0.30;0.30;;;;;;;;;;5115300;28;20240;-78
2024/01/07 06:09:46;;;;;;;0.30;0.30;;;;;;;;;;5126818;28;20198;-79
2024/01/07 06:12:12;;;;;;;0.30;0.30;;;;;;;;;;5115099;28;20253;-79
2024/01/07 06:14:39;;;;;;;0.30;0.30;;;;;;;;;;5126756;28;20235;-79
2024/01/07 06:17:05;;;;;;;0.30;0.30;;;;;;;;;;5114978;28;20269;-79
2024/01/07 06:19:31;;;;;;;0.30;0.30;;;;;;;;;;5126832;28;20204;-79
2024/01/07 06:21:58;;;;;;;0.37;0.37;;;;;;;;;;5115154;28;20310;-79
2024/01/07 06:24:25;;;;;;;0.30;0.30;;;;;;;;;;5126678;28;20242;-79
2024/01/07 06:26:52;;;;;;;0.30;0.30;;;;;;;;;;5115011;28;20299;-79
2024/01/07 06:29:18;;;;;;;0.30;0.30;;;;;;;;;;5126725;28;20456;-78
2024/01/07 06:31:45;;;;;;;0.30;0.30;;;;;;;;;;5114972;28;20690;-79
2024/01/07 06:34:13;;;;;;;4.47;4.13;;;;;;;;;;5126539;28;20504;-79
2024/01/07 06:36:39;;;;;;;0.30;0.30;;;;;;;;;;5114854;28;20300;-79
2024/01/07 06:39:07;;;;;;;0.30;0.30;;;;;;;;;;5126105;28;20229;-79
2024/01/07 06:41:35;;;;;;;0.30;0.30;;;;;;;;;;5115114;28;20276;-79
2024/01/07 06:44:01;;;;;;;0.30;0.30;;;;;;;;;;5126181;28;20204;-79
2024/01/07 06:46:28;;;;;;;0.30;0.30;;;;;;;;;;5114886;28;20479;-79
2024/01/07 06:48:54;;;;;;;0.30;0.30;;;;;;;;;;5126059;28;20399;-79
2024/01/07 06:51:20;;;;;;;0.30;0.30;;;;;;;;;;5115056;28;20245;-79
2024/01/07 06:53:47;;;;;;;0.30;0.30;;;;;;;;;;5125615;28;20231;-79
2024/01/07 06:56:14;;;;;;;0.30;0.30;;;;;;;;;;5114850;28;20484;-76
2024/01/07 06:58:41;;;;;;;0.30;0.30;;;;;;;;;;5125752;28;20210;-79
2024/01/07 07:01:08;;;;;;;0.37;0.37;;;;;;;;;;5114913;28;20259;-79
2024/01/07 07:03:34;;;;;;;0.40;0.40;;;;;;;;;;5125651;28;20202;-79
2024/01/07 07:06:01;;;;;;;0.30;0.30;;;;;;;;;;5114692;28;20247;-79
2024/01/07 07:08:27;;;;;;;0.30;0.30;;;;;;;;;;5125187;28;20204;-79
2024/01/07 07:10:54;;;;;;;0.30;0.30;;;;;;;;;;5114147;28;20243;-79
2024/01/07 07:13:20;;;;;;;0.30;0.30;;;;;;;;;;5125217;28;20256;-78
2024/01/07 07:15:48;;;;;;;0.60;0.60;;;;;;;;;;5115121;28;20258;-79
2024/01/07 07:18:14;;;;;;;0.30;0.30;;;;;;;;;;5125099;28;20205;-79
2024/01/07 07:20:41;;;;;;;0.30;0.30;;;;;;;;;;5115004;28;20240;-79
2024/01/07 07:23:07;;;;;;;0.40;0.40;;;;;;;;;;5124772;28;20194;-79
2024/01/07 07:25:33;;;;;;;0.30;0.30;;;;;;;;;;5114928;28;20252;-79
2024/01/07 07:27:59;;;;;;;0.30;0.30;;;;;;;;;;5124653;28;20236;-79
2024/01/07 07:30:25;;;;;;;0.30;0.30;;;;;;;;;;5115015;28;20205;-78
2024/01/07 07:32:53;;;;;;;0.30;0.30;;;;;;;;;;5124496;28;20278;-79
2024/01/07 07:35:19;;;;;;;0.30;0.30;;;;;;;;;;5114738;28;20209;-79
2024/01/07 07:37:46;;;;;;;0.30;0.30;;;;;;;;;;5124707;28;20291;-79
2024/01/07 07:40:13;;;;;;;0.30;0.30;;;;;;;;;;5115172;28;20205;-79
2024/01/07 07:42:39;;;;;;;0.30;0.30;;;;;;;;;;5124454;28;20372;-79
2024/01/07 07:45:06;;;;;;;0.30;0.30;;;;;;;;;;5125134;28;20203;-79
2024/01/07 07:47:33;;;;;;;0.30;0.30;;;;;;;;;;5113806;28;20304;-79
2024/01/07 07:50:01;;;;;;;0.30;0.30;;;;;;;;;;5125563;28;20202;-79
2024/01/07 07:52:28;;;;;;;0.30;0.30;;;;;;;;;;5113475;28;20236;-79
2024/01/07 07:54:54;;;;;;;0.30;0.30;;;;;;;;;;5125447;28;20256;-79
2024/01/07 07:57:21;;;;;;;0.30;0.30;;;;;;;;;;5113435;28;20236;-79
2024/01/07 07:59:47;;;;;;;0.30;0.30;;;;;;;;;;5125319;28;20502;-79
2024/01/07 08:02:14;;;;;;;0.30;0.30;;;;;;;;;;5113187;28;20265;-79
2024/01/07 08:04:44;;;;;;;0.30;0.30;;;;;;;;;;5125159;28;20229;-79
2024/01/07 08:07:11;;;;;;;0.30;0.30;;;;;;;;;;5112967;28;20244;-79
2024/01/07 08:09:38;;;;;;;0.30;0.30;;;;;;;;;;5124694;28;20204;-79
2024/01/07 08:12:05;;;;;;;0.30;0.30;;;;;;;;;;5113086;28;20503;-78
2024/01/07 08:14:32;;;;;;;0.30;0.30;;;;;;;;;;5124902;28;20202;-79
2024/01/07 08:16:58;;;;;;;0.30;0.30;;;;;;;;;;5113106;28;20551;-79
2024/01/07 08:19:25;;;;;;;0.30;0.30;;;;;;;;;;5124842;28;20270;-79
2024/01/07 08:21:52;;;;;;;0.30;0.30;;;;;;;;;;5112904;28;20238;-79
2024/01/07 08:24:20;;;;;;;0.33;0.33;;;;;;;;;;5123914;28;20233;-79
2024/01/07 08:26:46;;;;;;;0.30;0.30;;;;;;;;;;5113109;28;20248;-79
2024/01/07 08:29:13;;;;;;;0.30;0.30;;;;;;;;;;5124525;28;20202;-79
2024/01/07 08:31:42;;;;;;;0.30;0.30;;;;;;;;;;5113087;28;20240;-79
2024/01/07 08:34:08;;;;;;;0.30;0.30;;;;;;;;;;5124116;28;20198;-79
2024/01/07 08:36:34;;;;;;;0.30;0.30;;;;;;;;;;5113124;28;20267;-79
2024/01/07 08:39:01;;;;;;;0.30;0.30;;;;;;;;;;5124089;28;20516;-78
2024/01/07 08:41:28;;;;;;;0.30;0.30;;;;;;;;;;5113078;28;20513;-79
2024/01/07 08:43:55;;;;;;;0.30;0.30;;;;;;;;;;5123912;28;20222;-79
2024/01/07 08:46:21;;;;;;;0.30;0.30;;;;;;;;;;5113311;28;20253;-79
2024/01/07 08:48:48;;;;;;;0.30;0.30;;;;;;;;;;5124072;28;20201;-79
2024/01/07 08:51:14;;;;;;;0.30;0.30;;;;;;;;;;5113098;28;20304;-80
2024/01/07 08:53:41;;;;;;;3.33;3.23;;;;;;;;;;5123923;28;20393;-79
2024/01/07 08:56:08;;;;;;;0.30;0.30;;;;;;;;;;5113234;28;20244;-79
2024/01/07 08:58:37;;;;;;;0.30;0.30;;;;;;;;;;5123866;28;20453;-79
2024/01/07 09:01:03;;;;;;;0.30;0.30;;;;;;;;;;5113160;28;20585;-79
2024/01/07 09:03:30;;;;;;;0.30;0.30;;;;;;;;;;5123441;28;20446;-79
2024/01/07 09:05:56;;;;;;;0.30;0.30;;;;;;;;;;5113153;28;20287;-79
2024/01/07 09:08:23;;;;;;;0.30;0.30;;;;;;;;;;5123951;28;20377;-79
2024/01/07 09:10:52;;;;;;;0.30;0.30;;;;;;;;;;5113251;28;20459;-78
2024/01/07 09:13:18;;;;;;;0.30;0.30;;;;;;;;;;5123374;28;20200;-79
2024/01/07 09:15:46;;;;;;;0.30;0.30;;;;;;;;;;5113580;28;20240;-79
2024/01/07 09:18:12;;;;;;;0.40;0.40;;;;;;;;;;5123409;28;20276;-79
2024/01/07 09:20:39;;;;;;;0.37;0.37;;;;;;;;;;5112966;28;20248;-79
2024/01/07 09:23:05;;;;;;;0.30;0.30;;;;;;;;;;5123105;28;20233;-79
2024/01/07 09:25:32;;;;;;;0.30;0.30;;;;;;;;;;5113119;28;20286;-79
2024/01/07 09:27:58;;;;;;;0.30;0.30;;;;;;;;;;5123092;28;20272;-79
2024/01/07 09:30:24;;;;;;;0.37;0.37;;;;;;;;;;5113390;28;20397;-79
2024/01/07 09:32:52;;;;;;;0.30;0.30;;;;;;;;;;5123068;28;20457;-78
2024/01/07 09:35:18;;;;;;;0.30;0.30;;;;;;;;;;5115282;28;20418;-79
2024/01/07 09:37:45;;;;;;;0.30;0.30;;;;;;;;;;5126879;28;20419;-79
2024/01/07 09:40:12;;;;;;;0.30;0.30;;;;;;;;;;5117242;28;20234;-78
2024/01/07 09:42:38;;;;;;;0.30;0.30;;;;;;;;;;5126565;28;20221;-79
2024/01/07 09:45:05;;;;;;;0.30;0.30;;;;;;;;;;5127375;28;20200;-78
2024/01/07 09:47:31;;;;;;;0.40;0.40;;;;;;;;;;5115827;28;20296;-79
2024/01/07 09:49:59;;;;;;;0.30;0.30;;;;;;;;;;5127579;28;20235;-79
2024/01/07 09:52:26;;;;;;;0.30;0.30;;;;;;;;;;5115526;28;20301;-80
2024/01/07 09:54:53;;;;;;;0.33;0.33;;;;;;;;;;5127271;28;20201;-80
2024/01/07 09:57:19;;;;;;;0.30;0.30;;;;;;;;;;5115463;28;20239;-77
2024/01/07 09:59:46;;;;;;;0.33;0.33;;;;;;;;;;5127134;28;20248;-79
2024/01/07 10:02:12;;;;;;;0.30;0.30;;;;;;;;;;5115502;28;20234;-79
2024/01/07 10:04:39;;;;;;;0.30;0.30;;;;;;;;;;5126973;28;20222;-79
2024/01/07 10:07:07;;;;;;;0.30;0.30;;;;;;;;;;5115441;28;20615;-79
2024/01/07 10:09:34;;;;;;;0.30;0.30;;;;;;;;;;5127189;28;20241;-79
2024/01/07 10:12:00;;;;;;;0.30;0.30;;;;;;;;;;5115417;28;20256;-79
2024/01/07 10:14:27;;;;;;;0.30;0.30;;;;;;;;;;5127018;28;20399;-79
2024/01/07 10:16:53;;;;;;;0.30;0.30;;;;;;;;;;5115582;28;20433;-79
2024/01/07 10:19:21;;;;;;;0.30;0.30;;;;;;;;;;5126787;28;20442;-78
2024/01/07 10:21:47;;;;;;;0.30;0.30;;;;;;;;;;5115326;28;20300;-78
2024/01/07 10:24:15;;;;;;;0.30;0.30;;;;;;;;;;5126327;28;20226;-76
2024/01/07 10:26:42;;;;;;;0.30;0.30;;;;;;;;;;5115208;28;20240;-79
2024/01/07 10:29:09;;;;;;;0.30;0.30;;;;;;;;;;5126248;28;20229;-79
2024/01/07 10:31:36;;;;;;;0.30;0.30;;;;;;;;;;5115252;28;20256;-79
2024/01/07 10:34:03;;;;;;;0.30;0.30;;;;;;;;;;5126475;28;20520;-79
2024/01/07 10:36:30;;;;;;;0.30;0.30;;;;;;;;;;5115292;28;20240;-79
2024/01/07 10:38:56;;;;;;;0.30;0.30;;;;;;;;;;5127130;28;20520;-80
2024/01/07 10:41:30;;;;;;;0.30;0.30;;;;;;;;;;5115903;28;20245;-83
2024/01/07 10:43:59;;;;;;;0.30;0.30;;;;;;;;;;5126539;28;20212;-82
2024/01/07 10:46:27;;;;;;;0.30;0.30;;;;;;;;;;5113944;28;20296;-82
2024/01/07 10:48:59;;;;;;;0.27;0.27;;;;;;;;;;5126548;28;20222;-82
2024/01/07 10:51:35;;;;;;;0.30;0.30;;;;;;;;;;5114450;28;20246;-83
2024/01/07 10:54:02;;;;;;;0.30;0.30;;;;;;;;;;5126152;28;20186;-82
2024/01/07 10:56:33;;;;;;;0.30;0.30;;;;;;;;;;5115739;28;20279;-82
2024/01/07 10:59:03;;;;;;;0.30;0.30;;;;;;;;;;5126182;28;20263;-82
2024/01/07 11:01:30;;;;;;;0.30;0.30;;;;;;;;;;5115193;28;20245;-82
2024/01/07 11:04:00;;;;;;;0.30;0.30;;;;;;;;;;5126419;28;20218;-82
2024/01/07 11:06:31;;;;;;;0.30;0.30;;;;;;;;;;5115816;28;20242;-82
2024/01/07 11:08:59;;;;;;;0.30;0.30;;;;;;;;;;5126844;28;20291;-82
2024/01/07 11:11:26;;;;;;;0.30;0.30;;;;;;;;;;5115665;28;20240;-82
2024/01/07 11:13:57;;;;;;;0.30;0.30;;;;;;;;;;5125825;28;20265;-83
2024/01/07 11:16:39;;;;;;;0.30;0.30;;;;;;;;;;5115183;28;20237;-82
2024/01/07 11:19:05;;;;;;;0.30;0.30;;;;;;;;;;5125771;28;20231;-81
2024/01/07 11:21:32;;;;;;;0.30;0.30;;;;;;;;;;5115126;28;20308;-82
2024/01/07 11:23:58;;;;;;;0.30;0.30;;;;;;;;;;5126251;28;20224;-83
2024/01/07 11:26:24;;;;;;;0.30;0.30;;;;;;;;;;5114932;28;20249;-82
2024/01/07 11:28:50;;;;;;;0.30;0.30;;;;;;;;;;5126062;28;20428;-82
2024/01/07 11:31:19;;;;;;;0.30;0.30;;;;;;;;;;5115315;28;20250;-84
2024/01/07 11:33:49;;;;;;;0.30;0.30;;;;;;;;;;5125851;28;20261;-83
2024/01/07 11:36:16;;;;;;;0.30;0.30;;;;;;;;;;5116166;28;20289;-81
2024/01/07 11:38:43;;;;;;;0.30;0.30;;;;;;;;;;5126844;28;20202;-83
2024/01/07 11:41:10;;;;;;;0.40;0.40;;;;;;;;;;5115447;28;20249;-83
2024/01/07 11:43:36;;;;;;;0.30;0.30;;;;;;;;;;5125269;28;20285;-84
2024/01/07 11:46:03;;;;;;;0.30;0.30;;;;;;;;;;5115103;28;20237;-83
2024/01/07 11:48:30;;;;;;;0.30;0.30;;;;;;;;;;5125882;28;20198;-83
2024/01/07 11:50:57;;;;;;;0.30;0.30;;;;;;;;;;5114874;28;20280;-81
2024/01/07 11:53:23;;;;;;;0.30;0.30;;;;;;;;;;5125939;28;20224;-83
2024/01/07 11:55:50;;;;;;;0.30;0.30;;;;;;;;;;5115857;28;20241;-83
2024/01/07 11:58:16;;;;;;;0.30;0.30;;;;;;;;;;5125663;28;20209;-83
2024/01/07 12:00:43;;;;;;;0.40;0.40;;;;;;;;;;5116328;28;20260;-83
2024/01/07 12:03:09;;;;;;;0.30;0.30;;;;;;;;;;5124930;28;20265;-83
2024/01/07 12:05:37;;;;;;;0.30;0.30;;;;;;;;;;5114798;28;20239;-82
2024/01/07 12:08:04;;;;;;;0.30;0.30;;;;;;;;;;5124881;28;20220;-84
2024/01/07 12:10:37;;;;;;;0.30;0.30;;;;;;;;;;5116000;28;20246;-84
2024/01/07 12:13:08;;;;;;;0.30;0.30;;;;;;;;;;5125950;28;20324;-81
2024/01/07 12:15:34;;;;;;;0.30;0.30;;;;;;;;;;5119666;28;20245;-83
2024/01/07 12:18:05;;;;;;;0.30;0.30;;;;;;;;;;5129534;28;20197;-81
2024/01/07 12:20:31;;;;;;;0.30;0.30;;;;;;;;;;5119085;28;20267;-83
2024/01/07 12:23:06;;;;;;;0.30;0.30;;;;;;;;;;5124281;28;20193;-85
2024/01/07 12:25:36;;;;;;;0.30;0.30;;;;;;;;;;5116235;28;20403;-80
2024/01/07 12:28:02;;;;;;;0.30;0.30;;;;;;;;;;5125306;28;20193;-81
2024/01/07 12:30:30;;;;;;;0.30;0.30;;;;;;;;;;5114233;28;20248;-78
2024/01/07 12:32:57;;;;;;;0.30;0.30;;;;;;;;;;5123721;28;20387;-79
2024/01/07 12:35:26;;;;;;;0.30;0.30;;;;;;;;;;5113801;28;20198;-79
2024/01/07 12:37:53;;;;;;;0.30;0.30;;;;;;;;;;5123558;28;20205;-78
2024/01/07 12:40:20;;;;;;;0.30;0.30;;;;;;;;;;5113956;28;20209;-78
2024/01/07 12:42:47;;;;;;;0.30;0.30;;;;;;;;;;5123569;28;20197;-78
2024/01/07 12:45:16;;;;;;;0.30;0.30;;;;;;;;;;5113860;28;20255;-78
2024/01/07 12:47:43;;;;;;;0.30;0.30;;;;;;;;;;5123005;28;20225;-79
2024/01/07 12:50:09;;;;;;;0.30;0.30;;;;;;;;;;5118834;28;20242;-78
2024/01/07 12:52:37;;;;;;;0.30;0.30;;;;;;;;;;5122715;28;20247;-78
2024/01/07 12:55:03;;;;;;;0.30;0.30;;;;;;;;;;5124510;28;20206;-78
2024/01/07 12:57:31;;;;;;;0.30;0.30;;;;;;;;;;5112441;28;20239;-79
2024/01/07 12:59:57;;;;;;;0.30;0.30;;;;;;;;;;5124174;28;20240;-79
2024/01/07 13:02:24;;;;;;;0.30;0.30;;;;;;;;;;5112191;28;20291;-79
2024/01/07 13:04:50;;;;;;;0.20;0.20;;;;;;;;;;5123934;28;20268;-78
2024/01/07 13:07:17;;;;;;;0.27;0.27;;;;;;;;;;5112355;28;20257;-79
2024/01/07 13:09:44;;;;;;;0.30;0.30;;;;;;;;;;5125407;28;20201;-79
2024/01/07 13:12:10;;;;;;;0.30;0.30;;;;;;;;;;5116302;28;20452;-78
2024/01/07 13:14:38;;;;;;;0.30;0.30;;;;;;;;;;5127752;28;20233;-79
2024/01/07 13:17:05;;;;;;;0.30;0.30;;;;;;;;;;5116359;28;20461;-78
2024/01/07 13:19:31;;;;;;;0.30;0.30;;;;;;;;;;5128206;28;20387;-78
2024/01/07 13:21:59;;;;;;;0.30;0.30;;;;;;;;;;5116408;28;20261;-78
2024/01/07 13:24:25;;;;;;;0.30;0.30;;;;;;;;;;5127785;28;20225;-77
2024/01/07 13:26:52;;;;;;;0.30;0.30;;;;;;;;;;5116484;28;20569;-78
2024/01/07 13:29:19;;;;;;;0.40;0.40;;;;;;;;;;5127682;28;20206;-79
2024/01/07 13:31:47;;;;;;;0.30;0.30;;;;;;;;;;5116146;28;20553;-77
2024/01/07 13:34:15;;;;;;;0.30;0.30;;;;;;;;;;5128277;28;20208;-80
2024/01/07 13:36:41;;;;;;;0.30;0.30;;;;;;;;;;5116729;28;20245;-79
2024/01/07 13:39:08;;;;;;;0.20;0.20;;;;;;;;;;5127317;28;20250;-78
2024/01/07 13:41:34;;;;;;;0.30;0.30;;;;;;;;;;5116274;28;20261;-80
2024/01/07 13:44:02;;;;;;;0.60;0.60;;;;;;;;;;5127142;28;20538;-77
2024/01/07 13:46:29;;;;;;;0.33;0.33;;;;;;;;;;5116003;28;20238;-80
2024/01/07 13:48:57;;;;;;;0.30;0.30;;;;;;;;;;5126963;28;20209;-79
2024/01/07 13:51:23;;;;;;;0.30;0.30;;;;;;;;;;5116025;28;20244;-79
2024/01/07 13:53:49;;;;;;;0.30;0.30;;;;;;;;;;5126892;28;20522;-79
2024/01/07 13:56:16;;;;;;;0.30;0.30;;;;;;;;;;5116230;28;20595;-82
2024/01/07 13:58:43;;;;;;;0.30;0.30;;;;;;;;;;5127101;28;20275;-83
2024/01/07 14:01:09;;;;;;;0.30;0.30;;;;;;;;;;5120894;28;20241;-82
2024/01/07 14:03:36;;;;;;;0.30;0.30;;;;;;;;;;5130396;28;20435;-81
2024/01/07 14:06:05;;;;;;;0.30;0.30;;;;;;;;;;5123007;28;20269;-82
2024/01/07 14:08:33;;;;;;;0.30;0.30;;;;;;;;;;5133637;28;20216;-83
2024/01/07 14:10:59;;;;;;;0.30;0.30;;;;;;;;;;5122396;28;20236;-83
2024/01/07 14:13:26;;;;;;;0.30;0.30;;;;;;;;;;5131122;28;20530;-82
2024/01/07 14:15:52;;;;;;;0.30;0.30;;;;;;;;;;5119839;28;20453;-83
2024/01/07 14:18:21;;;;;;;0.30;0.30;;;;;;;;;;5130572;28;20197;-82
2024/01/07 14:20:48;;;;;;;0.30;0.30;;;;;;;;;;5119883;28;20242;-83
2024/01/07 14:23:15;;;;;;;0.30;0.30;;;;;;;;;;5132183;28;20200;-83
2024/01/07 14:25:42;;;;;;;0.30;0.30;;;;;;;;;;5121775;28;20304;-83
2024/01/07 14:28:08;;;;;;;0.30;0.30;;;;;;;;;;5132770;28;20209;-82
2024/01/07 14:30:35;;;;;;;0.30;0.30;;;;;;;;;;5121593;28;20245;-83
2024/01/07 14:33:02;;;;;;;0.30;0.30;;;;;;;;;;5130751;28;20259;-82
2024/01/07 14:35:30;;;;;;;0.30;0.30;;;;;;;;;;5120332;28;20198;-83
2024/01/07 14:37:58;;;;;;;0.30;0.30;;;;;;;;;;5131382;28;20200;-83
2024/01/07 14:40:26;;;;;;;0.30;0.30;;;;;;;;;;5120489;28;20204;-83